עמוד ראשי
METAR-TAF:

METAR-TAF

שדות תעופה :

Pilot Point, אלסקה, ארצות הברית

קו רוחב: 57-34-49N, קו אורך: 157-34-19W, גובה: 17מטר

תצפית מזג אוויר נוכחית

הדו"ח נערך לפני 22 שעות ו 37דקות, בשעה 20:56 UTC
רוח 9קשר מכיוון מערב/צפון-מערב
טמפרטורת 8 צלסיוס
לחות 81%
לחץ 1025 hPa
ראות: 12.9קילומטר
שמיים נקיים

METAR: PAPN 142056Z AUTO 30009KT 8SM CLR 08/05 A3027 RMK AO2 SLP252 T00780050 58005

זמן: 11:33 (19:33 UTC)


TAF: חסר

תצפיות ותחזיות מזג אוויר לגבי יותר מ- 4,000 שדות תעופה ברחבי העולם. דוחות METAR ו- TAF.

התחנות הזמינות מסומנות בנקודות צהובות ואדומות על גבי המפה.

העבר את העכבר לנקודה הצבעונית על מנת לראות את שם התחנה.

לאחר מכן, לחץ כדי לראות את תוכן ואת תחזיות מזג האוויר.

כדי לשנות את המפה: לחץ על הכפתורים הירוקים עם הפלוס השחור כדי להתקרב; על הכפתור הירוק עם המקף כדי להתרחק; או בחיצים הירוקים למפות סמוכות.


METAR-TAF: